Pickwick Observed Data For Previous 48 Hours

Caption
Day and Hour Reservoir Elevation (behind dam)* Tailwater Elevation (below dam)* Average Hourly Discharge*
12/4/2019 1 AM CST 411.78 371.17 119,549
12/4/2019 2 AM CST 411.81 371.24 119,926
12/4/2019 3 AM CST 411.82 371.21 120,095
12/4/2019 4 AM CST 411.82 371.23 120,193
12/4/2019 5 AM CST 411.84 371.24 120,251
12/4/2019 6 AM CST 411.87 371.27 120,402
12/4/2019 7 AM CST 411.89 371.29 120,703
12/4/2019 8 AM CST 411.91 371.30 120,907
12/4/2019 9 AM CST 411.88 371.40 120,832
12/4/2019 10 AM CST 411.95 371.38 121,063
12/4/2019 11 AM CST 411.97 371.47 121,546
12/4/2019 12 PM CST 411.97 371.50 121,676
12/4/2019 1 PM CST 411.98 371.43 121,571
12/4/2019 2 PM CST 411.96 371.42 121,650
12/4/2019 3 PM CST 411.97 371.43 121,691
12/4/2019 4 PM CST 411.97 371.43 121,699
12/4/2019 5 PM CST 411.97 371.46 121,663
12/4/2019 6 PM CST 411.95 371.44 121,601
12/4/2019 7 PM CST 411.97 371.43 121,585
12/4/2019 8 PM CST 411.95 371.43 121,566
12/4/2019 9 PM CST 411.95 371.43 121,545
12/4/2019 10 PM CST 411.95 371.42 121,495
12/4/2019 11 PM CST 411.95 371.43 121,676
12/5/2019 12 AM CST 411.95 371.43 121,596
12/5/2019 1 AM CST 411.95 371.42 121,577
12/5/2019 2 AM CST 411.95 371.42 121,545
12/5/2019 3 AM CST 411.94 371.42 121,499
12/5/2019 4 AM CST 411.95 371.43 121,510
12/5/2019 5 AM CST 411.93 371.43 121,443
12/5/2019 6 AM CST 411.93 371.42 121,368
12/5/2019 7 AM CST 411.92 371.45 121,353
12/5/2019 8 AM CST 411.94 371.50 121,222
12/5/2019 9 AM CST 411.95 371.45 121,238
12/5/2019 10 AM CST 411.97 371.52 121,438
12/5/2019 11 AM CST 411.93 371.52 121,319
12/5/2019 12 PM CST 411.92 371.46 121,099
12/5/2019 1 PM CST 411.91 371.43 121,008
12/5/2019 2 PM CST 411.92 371.44 121,118
12/5/2019 3 PM CST 411.91 371.46 121,008
12/5/2019 4 PM CST 411.90 371.41 120,755
12/5/2019 5 PM CST 411.89 371.41 120,727
12/5/2019 6 PM CST 411.92 371.42 120,737
12/5/2019 7 PM CST 411.88 371.41 120,726
12/5/2019 8 PM CST 411.89 371.41 120,568
12/5/2019 9 PM CST 411.89 371.44 120,668
12/5/2019 10 PM CST 411.90 371.41 120,675
12/5/2019 11 PM CST 411.91 371.39 120,833
12/6/2019 12 AM CST 411.88 371.39 120,781
12/6/2019 1 AM CST 411.88 371.37 120,539
12/6/2019 2 AM CST 411.87 371.37 120,553
12/6/2019 3 AM CST 411.88 371.37 120,551
12/6/2019 4 AM CST 411.85 371.36 120,470
12/6/2019 5 AM CST 411.88 371.35 120,514
12/6/2019 6 AM CST 411.87 371.43 120,506
12/6/2019 7 AM CST 411.84 371.38 120,345
12/6/2019 8 AM CST 411.82 371.34 120,102
12/6/2019 9 AM CST 411.83 371.34 120,092
12/6/2019 10 AM CST 411.87 371.34 120,343
12/6/2019 11 AM CST 411.86 371.34 120,405
12/6/2019 12 PM CST 411.83 371.34 120,138
12/6/2019 1 PM CST 411.80 371.34 119,988
12/6/2019 2 PM CST 411.81 371.33 119,825
12/6/2019 3 PM CST 411.82 371.34 119,930
12/6/2019 4 PM CST 411.83 371.32 119,976
12/6/2019 5 PM CST 411.79 371.34 119,873
12/6/2019 6 PM CST 411.79 371.31 119,694
12/6/2019 7 PM CST 411.78 371.28 119,672
12/6/2019 8 PM CST 411.73 371.26 119,398
12/6/2019 9 PM CST 411.73 371.24 119,233
12/6/2019 10 PM CST 411.72 371.24 119,246

Elevations are in feet above sea level. Discharges are in cubic feet per second and are reported at the end of the hour.